createdAt,value
2018-05-21T00:00:45.809Z,68.88
2018-05-21T00:03:13.426Z,69.16
2018-05-21T00:05:41.073Z,69.49
2018-05-21T00:08:08.716Z,69.21
2018-05-21T00:10:36.336Z,69.43
2018-05-21T00:13:03.985Z,69.77
2018-05-21T00:15:31.596Z,69.66
2018-05-21T00:17:59.227Z,69.88
2018-05-21T00:20:26.824Z,69.78
2018-05-21T00:22:54.584Z,69.80
2018-05-21T00:25:22.217Z,69.58
2018-05-21T00:27:49.881Z,69.33
2018-05-21T00:30:17.487Z,69.58
2018-05-21T00:32:45.166Z,69.67
2018-05-21T00:35:12.804Z,69.86
2018-05-21T00:37:40.455Z,69.99
2018-05-21T00:40:08.054Z,69.74
2018-05-21T00:42:35.709Z,69.85
2018-05-21T00:45:03.317Z,70.59
2018-05-21T00:47:31.010Z,70.69
2018-05-21T00:49:58.615Z,70.34
2018-05-21T00:52:26.210Z,70.40
2018-05-21T00:55:05.484Z,70.54
2018-05-21T00:57:33.126Z,70.00
2018-05-21T01:00:00.748Z,70.80
2018-05-21T01:02:28.388Z,70.63
2018-05-21T01:04:56.044Z,70.32
2018-05-21T01:07:23.748Z,70.55
2018-05-21T01:09:51.586Z,70.43
2018-05-21T01:12:19.188Z,70.74
2018-05-21T01:14:46.890Z,70.43
2018-05-21T01:17:14.521Z,70.23
2018-05-21T01:19:42.230Z,70.37
2018-05-21T01:22:09.849Z,70.22
2018-05-21T01:24:37.612Z,70.20
2018-05-21T01:27:05.229Z,69.93
2018-05-21T01:29:32.885Z,69.73
2018-05-21T01:32:00.526Z,70.09
2018-05-21T01:34:28.210Z,70.19
2018-05-21T01:36:55.813Z,70.33
2018-05-21T01:39:23.417Z,70.79
2018-05-21T01:41:51.056Z,70.07
2018-05-21T01:44:18.667Z,70.05
2018-05-21T01:46:46.365Z,70.58
2018-05-21T01:49:13.966Z,70.10
2018-05-21T01:51:41.601Z,70.39
2018-05-21T01:54:09.245Z,70.20
2018-05-21T01:56:36.875Z,70.25
2018-05-21T01:59:04.489Z,70.28
2018-05-21T02:01:32.129Z,70.30
2018-05-21T02:03:59.728Z,71.08
2018-05-21T02:06:27.366Z,71.14
2018-05-21T02:08:54.956Z,71.21
2018-05-21T02:11:22.708Z,70.61
2018-05-21T02:13:50.301Z,70.33
2018-05-21T02:16:17.941Z,69.93
2018-05-21T02:18:45.541Z,70.13
2018-05-21T02:21:13.212Z,70.35
2018-05-21T02:23:40.858Z,70.79
2018-05-21T02:26:08.440Z,71.18
2018-05-21T02:28:36.145Z,71.24
2018-05-21T02:31:03.795Z,70.84
2018-05-21T02:33:31.461Z,70.71
2018-05-21T02:35:59.079Z,70.07
2018-05-21T02:38:26.713Z,69.89
2018-05-21T02:40:54.319Z,70.03
2018-05-21T02:43:21.968Z,70.49
2018-05-21T02:45:49.568Z,70.75
2018-05-21T02:48:17.206Z,70.57
2018-05-21T02:50:44.889Z,70.20
2018-05-21T02:53:12.526Z,70.58
2018-05-21T02:55:40.123Z,70.41
2018-05-21T02:58:07.754Z,70.10
2018-05-21T03:00:35.387Z,70.02
2018-05-21T03:03:02.978Z,70.15
2018-05-21T03:05:30.830Z,69.92
2018-05-21T03:07:59.154Z,70.17
2018-05-21T03:10:26.788Z,69.98
2018-05-21T03:12:54.395Z,70.16
2018-05-21T03:15:22.149Z,70.01
2018-05-21T03:17:49.741Z,70.35
2018-05-21T03:20:17.372Z,70.65
2018-05-21T03:22:44.985Z,71.16
2018-05-21T03:25:12.648Z,71.17
2018-05-21T03:27:40.257Z,70.99
2018-05-21T03:30:07.954Z,70.76
2018-05-21T03:32:35.567Z,70.57
2018-05-21T03:35:03.249Z,70.61
2018-05-21T03:37:30.867Z,70.72
2018-05-21T03:39:58.545Z,70.60
2018-05-21T03:42:26.136Z,70.27
2018-05-21T03:44:53.727Z,70.41
2018-05-21T03:47:21.352Z,70.00
2018-05-21T03:49:48.953Z,70.09
2018-05-21T03:52:16.609Z,70.40
2018-05-21T03:54:44.197Z,70.45
2018-05-21T03:57:11.828Z,70.34
2018-05-21T03:59:50.997Z,70.08
2018-05-21T04:02:31.976Z,70.11
2018-05-21T04:04:59.581Z,70.10
2018-05-21T04:07:27.377Z,70.03
2018-05-21T04:09:54.989Z,70.14
2018-05-21T04:12:22.619Z,70.27
2018-05-21T04:14:50.277Z,70.39
2018-05-21T04:17:17.903Z,70.41
2018-05-21T04:19:45.498Z,70.15
2018-05-21T04:22:13.141Z,69.78
2018-05-21T04:24:40.826Z,69.45
2018-05-21T04:27:08.451Z,69.13
2018-05-21T04:29:36.055Z,69.21
2018-05-21T04:32:03.683Z,69.27
2018-05-21T04:34:31.285Z,69.12
2018-05-21T04:36:58.940Z,69.15
2018-05-21T04:39:26.526Z,69.17
2018-05-21T04:41:54.134Z,69.20
2018-05-21T04:44:21.771Z,68.91
2018-05-21T04:46:49.376Z,68.36
2018-05-21T04:49:17.080Z,67.95
2018-05-21T04:51:44.773Z,67.94
2018-05-21T04:54:12.635Z,66.68
2018-05-21T04:56:40.238Z,66.64
2018-05-21T04:59:07.884Z,64.99
2018-05-21T05:01:35.481Z,65.33
2018-05-21T05:04:03.103Z,65.57
2018-05-21T05:06:30.733Z,65.50
2018-05-21T05:08:59.081Z,65.22
2018-05-21T05:11:26.741Z,64.89
2018-05-21T05:13:55.077Z,64.79
2018-05-21T05:16:22.682Z,64.10
2018-05-21T05:18:50.306Z,65.29
2018-05-21T05:21:17.949Z,65.46
2018-05-21T05:23:45.604Z,63.96
2018-05-21T05:26:13.236Z,63.72
2018-05-21T05:28:40.890Z,63.66
2018-05-21T05:31:08.533Z,64.13
2018-05-21T05:33:36.139Z,64.31
2018-05-21T05:36:03.922Z,64.67
2018-05-21T05:38:31.430Z,64.46
2018-05-21T05:40:59.078Z,64.19
2018-05-21T05:43:26.669Z,64.39
2018-05-21T05:45:54.317Z,64.95
2018-05-21T05:48:21.925Z,65.81
2018-05-21T05:50:49.657Z,65.33
2018-05-21T05:53:17.305Z,65.24
2018-05-21T05:55:45.009Z,64.92
2018-05-21T05:58:12.617Z,64.16
2018-05-21T06:00:40.259Z,63.36
2018-05-21T06:03:07.894Z,62.45
2018-05-21T06:05:35.559Z,61.66
2018-05-21T06:08:03.160Z,62.98
2018-05-21T06:10:30.801Z,63.17
2018-05-21T06:12:58.406Z,63.91
2018-05-21T06:15:26.297Z,64.26
2018-05-21T06:17:53.929Z,64.06
2018-05-21T06:20:21.557Z,62.90
2018-05-21T06:22:49.203Z,62.10
2018-05-21T06:25:16.894Z,60.15
2018-05-21T06:27:44.520Z,59.40
2018-05-21T06:30:12.150Z,59.88
2018-05-21T06:32:39.802Z,59.52
2018-05-21T06:35:07.409Z,59.09
2018-05-21T06:37:35.037Z,58.36
2018-05-21T06:40:02.646Z,58.36
2018-05-21T06:42:30.273Z,57.26
2018-05-21T06:44:57.868Z,54.97
2018-05-21T06:47:25.521Z,55.00
2018-05-21T06:49:53.115Z,53.11
2018-05-21T06:52:20.877Z,53.10
2018-05-21T06:54:48.468Z,52.38
2018-05-21T06:57:16.125Z,51.65
2018-05-21T06:59:43.826Z,52.36
2018-05-21T07:02:11.429Z,51.97
2018-05-21T07:04:39.038Z,51.64
2018-05-21T07:07:06.665Z,51.58
2018-05-21T07:09:34.290Z,51.27
2018-05-21T07:12:01.933Z,51.19
2018-05-21T07:14:29.582Z,51.83
2018-05-21T07:16:57.177Z,51.12
2018-05-21T07:19:24.806Z,51.10
2018-05-21T07:21:52.413Z,51.27
2018-05-21T07:24:20.124Z,51.26
2018-05-21T07:26:47.664Z,50.55
2018-05-21T07:29:15.296Z,50.21
2018-05-21T07:31:42.908Z,50.43
2018-05-21T07:34:10.553Z,49.49
2018-05-21T07:36:38.197Z,49.11
2018-05-21T07:39:06.788Z,49.21
2018-05-21T07:41:34.381Z,48.73
2018-05-21T07:44:02.073Z,48.59
2018-05-21T07:46:29.690Z,48.00
2018-05-21T07:48:57.536Z,48.81
2018-05-21T07:51:25.195Z,48.64
2018-05-21T07:53:52.785Z,48.77
2018-05-21T07:56:20.381Z,49.07
2018-05-21T07:58:48.032Z,49.78
2018-05-21T08:01:15.628Z,48.39
2018-05-21T08:03:43.229Z,48.63
2018-05-21T08:06:10.856Z,47.49
2018-05-21T08:08:38.554Z,47.40
2018-05-21T08:11:06.219Z,45.96
2018-05-21T08:13:33.878Z,46.72
2018-05-21T08:16:01.540Z,46.35
2018-05-21T08:18:29.148Z,46.73
2018-05-21T08:20:56.802Z,46.63
2018-05-21T08:23:24.421Z,46.37
2018-05-21T08:25:52.100Z,46.38
2018-05-21T08:28:19.708Z,46.12
2018-05-21T08:30:47.453Z,45.56
2018-05-21T08:33:15.111Z,45.22
2018-05-21T08:35:42.777Z,45.70
2018-05-21T08:38:10.397Z,45.32
2018-05-21T08:40:38.057Z,45.48
2018-05-21T08:43:05.684Z,45.33
2018-05-21T08:45:33.365Z,44.98
2018-05-21T08:48:01.061Z,44.37
2018-05-21T08:50:28.694Z,43.91
2018-05-21T08:52:56.337Z,42.80
2018-05-21T08:55:23.948Z,43.45
2018-05-21T08:57:51.593Z,43.56
2018-05-21T09:00:19.331Z,43.64
2018-05-21T09:02:46.978Z,42.71
2018-05-21T09:05:14.574Z,42.64
2018-05-21T09:07:42.221Z,43.41
2018-05-21T09:10:09.885Z,43.00
2018-05-21T09:12:37.455Z,42.89
2018-05-21T09:15:05.045Z,41.41
2018-05-21T09:17:32.682Z,40.71
2018-05-21T09:20:00.350Z,40.68
2018-05-21T09:22:27.998Z,40.82
2018-05-21T09:24:55.594Z,41.02
2018-05-21T09:27:23.311Z,41.64
2018-05-21T09:29:50.909Z,41.10
2018-05-21T09:32:18.553Z,40.30
2018-05-21T09:34:46.153Z,39.69
2018-05-21T09:37:13.777Z,40.48
2018-05-21T09:39:41.456Z,40.30
2018-05-21T09:42:09.123Z,40.08
2018-05-21T09:44:36.773Z,40.62
2018-05-21T09:47:04.398Z,40.59
2018-05-21T09:49:32.026Z,40.43
2018-05-21T09:51:59.627Z,40.46
2018-05-21T09:54:27.275Z,39.15
2018-05-21T09:56:54.904Z,39.65
2018-05-21T09:59:22.537Z,40.95
2018-05-21T10:01:50.126Z,39.45
2018-05-21T10:04:17.757Z,39.95
2018-05-21T10:06:45.468Z,39.84
2018-05-21T10:09:13.181Z,40.23
2018-05-21T10:11:40.822Z,40.15
2018-05-21T10:14:08.475Z,40.02
2018-05-21T10:16:36.354Z,39.46
2018-05-21T10:19:03.948Z,39.91
2018-05-21T10:21:31.605Z,40.13
2018-05-21T10:23:59.521Z,39.88
2018-05-21T10:26:27.159Z,39.46
2018-05-21T10:28:54.806Z,39.74
2018-05-21T10:31:22.540Z,39.42
2018-05-21T10:33:50.162Z,39.15
2018-05-21T10:36:17.805Z,39.23
2018-05-21T10:38:45.425Z,38.64
2018-05-21T10:41:13.105Z,37.48
2018-05-21T10:43:40.741Z,37.43
2018-05-21T10:46:08.387Z,37.43
2018-05-21T10:48:36.030Z,38.27
2018-05-21T10:51:03.717Z,36.50
2018-05-21T10:53:31.453Z,34.77
2018-05-21T10:55:59.374Z,35.12
2018-05-21T10:58:26.994Z,34.00
2018-05-21T11:00:55.338Z,33.15
2018-05-21T11:03:22.989Z,32.92
2018-05-21T11:05:51.605Z,34.48
2018-05-21T11:08:19.245Z,35.77
2018-05-21T11:10:46.847Z,34.17
2018-05-21T11:13:14.516Z,34.44
2018-05-21T11:15:42.764Z,33.37
2018-05-21T11:18:10.954Z,34.05
2018-05-21T11:20:38.620Z,34.82
2018-05-21T11:23:06.352Z,33.38
2018-05-21T11:25:33.953Z,34.08
2018-05-21T11:28:01.597Z,34.36
2018-05-21T11:30:29.337Z,34.57
2018-05-21T11:32:57.026Z,33.97
2018-05-21T11:35:24.739Z,33.27
2018-05-21T11:37:52.389Z,33.15
2018-05-21T11:40:20.013Z,33.33
2018-05-21T11:42:47.677Z,33.68
2018-05-21T11:45:15.344Z,32.79
2018-05-21T11:47:43.085Z,32.71
2018-05-21T11:50:10.734Z,32.59
2018-05-21T11:52:38.405Z,32.19
2018-05-21T11:55:07.437Z,33.37
2018-05-21T11:57:35.082Z,32.09
2018-05-21T12:00:02.841Z,32.19
2018-05-21T12:02:30.513Z,30.71
2018-05-21T12:04:58.146Z,31.55
2018-05-21T12:07:25.854Z,31.80
2018-05-21T12:09:53.502Z,30.54
2018-05-21T12:12:22.421Z,31.07
2018-05-21T12:14:50.071Z,29.39
2018-05-21T12:17:18.290Z,29.47
2018-05-21T12:19:46.655Z,29.14
2018-05-21T12:22:14.319Z,28.58
2018-05-21T12:24:41.984Z,28.19
2018-05-21T12:27:09.657Z,28.87
2018-05-21T12:29:38.444Z,28.39
2018-05-21T12:32:07.751Z,28.45
2018-05-21T12:34:35.377Z,27.90
2018-05-21T12:37:03.358Z,27.68
2018-05-21T12:39:31.058Z,28.27
2018-05-21T12:41:58.680Z,28.19
2018-05-21T12:44:26.315Z,27.48
2018-05-21T12:46:54.103Z,26.92
2018-05-21T12:49:21.802Z,27.28
2018-05-21T12:51:49.460Z,27.42
2018-05-21T12:54:17.541Z,28.06
2018-05-21T12:56:45.240Z,27.46
2018-05-21T12:59:12.869Z,28.00
2018-05-21T13:01:40.599Z,27.89
2018-05-21T13:04:08.200Z,29.19
2018-05-21T13:06:35.845Z,29.77
2018-05-21T13:09:03.487Z,29.17
2018-05-21T13:11:31.137Z,28.33
2018-05-21T13:13:58.741Z,27.90
2018-05-21T13:16:26.399Z,28.99
2018-05-21T13:18:54.015Z,28.78
2018-05-21T13:21:21.731Z,29.01
2018-05-21T13:23:49.506Z,28.95
2018-05-21T13:26:17.111Z,28.79
2018-05-21T13:28:45.252Z,29.31
2018-05-21T13:31:13.504Z,28.91
2018-05-21T13:33:41.708Z,27.97
2018-05-21T13:36:10.158Z,28.56
2018-05-21T13:38:37.800Z,28.46
2018-05-21T13:41:05.951Z,28.17
2018-05-21T13:43:33.599Z,28.42
2018-05-21T13:46:01.933Z,29.54
2018-05-21T13:48:29.637Z,30.15
2018-05-21T13:50:57.256Z,30.71
2018-05-21T13:53:25.250Z,31.13
2018-05-21T13:55:52.908Z,31.14
2018-05-21T13:58:20.597Z,30.71
2018-05-21T14:00:48.289Z,31.11
2018-05-21T14:03:16.006Z,32.25
2018-05-21T14:05:44.493Z,32.44
2018-05-21T14:08:12.986Z,30.82
2018-05-21T14:10:40.649Z,31.83
2018-05-21T14:13:08.338Z,31.29
2018-05-21T14:15:35.948Z,31.03
2018-05-21T14:18:03.605Z,32.00
2018-05-21T14:20:31.319Z,31.18
2018-05-21T14:22:59.761Z,31.37
2018-05-21T14:25:28.296Z,31.62
2018-05-21T14:27:56.734Z,31.61
2018-05-21T14:30:25.386Z,31.76
2018-05-21T14:32:53.037Z,32.13
2018-05-21T14:35:20.702Z,32.21
2018-05-21T14:37:49.272Z,32.31
2018-05-21T14:40:16.956Z,33.12
2018-05-21T14:42:44.571Z,32.65
2018-05-21T14:45:12.271Z,33.08
2018-05-21T14:47:40.448Z,33.67
2018-05-21T14:50:08.330Z,33.59
2018-05-21T14:52:35.935Z,33.23
2018-05-21T14:55:03.615Z,32.92
2018-05-21T14:57:31.209Z,33.13
2018-05-21T14:59:58.947Z,33.02
2018-05-21T15:02:26.621Z,33.17
2018-05-21T15:04:54.334Z,32.52
2018-05-21T15:07:21.996Z,32.67
2018-05-21T15:09:49.629Z,32.50
2018-05-21T15:12:17.340Z,33.11
2018-05-21T15:14:44.959Z,33.60
2018-05-21T15:17:12.601Z,33.46
2018-05-21T15:19:41.061Z,33.44
2018-05-21T15:22:08.699Z,33.60
2018-05-21T15:24:36.447Z,33.19
2018-05-21T15:27:04.134Z,32.72
2018-05-21T15:29:31.739Z,32.33
2018-05-21T15:31:59.491Z,33.41
2018-05-21T15:34:27.238Z,33.00
2018-05-21T15:36:54.849Z,33.67
2018-05-21T15:39:22.530Z,33.21
2018-05-21T15:41:50.137Z,31.52
2018-05-21T15:44:17.790Z,32.07
2018-05-21T15:46:45.398Z,32.30
2018-05-21T15:49:13.231Z,31.85
2018-05-21T15:51:40.857Z,32.32
2018-05-21T15:54:08.507Z,31.51
2018-05-21T15:56:36.136Z,30.11
2018-05-21T15:59:03.784Z,30.66
2018-05-21T16:01:31.454Z,30.92
2018-05-21T16:03:59.090Z,30.02
2018-05-21T16:06:26.727Z,30.68
2018-05-21T16:08:54.376Z,31.74
2018-05-21T16:11:21.987Z,31.11
2018-05-21T16:13:49.669Z,30.94
2018-05-21T16:16:17.296Z,30.67
2018-05-21T16:18:44.945Z,30.99
2018-05-21T16:21:12.590Z,30.45
2018-05-21T16:23:40.197Z,31.12
2018-05-21T16:26:07.837Z,31.40
2018-05-21T16:28:35.858Z,31.96
2018-05-21T16:31:03.624Z,31.92
2018-05-21T16:33:31.254Z,32.01
2018-05-21T16:35:58.915Z,31.40
2018-05-21T16:38:26.741Z,31.74
2018-05-21T16:40:54.413Z,31.79
2018-05-21T16:43:22.029Z,31.22
2018-05-21T16:45:49.688Z,31.44
2018-05-21T16:48:17.399Z,31.18
2018-05-21T16:50:45.394Z,31.75
2018-05-21T16:53:12.988Z,31.28
2018-05-21T16:55:40.607Z,31.12
2018-05-21T16:58:08.265Z,31.11
2018-05-21T17:00:35.861Z,31.07
2018-05-21T17:03:03.533Z,30.66
2018-05-21T17:05:31.191Z,30.24
2018-05-21T17:07:58.889Z,30.01
2018-05-21T17:10:26.739Z,31.03
2018-05-21T17:12:54.431Z,31.11
2018-05-21T17:15:22.045Z,31.37
2018-05-21T17:17:49.701Z,30.92
2018-05-21T17:20:17.379Z,30.42
2018-05-21T17:22:45.068Z,30.53
2018-05-21T17:25:12.676Z,31.40
2018-05-21T17:27:40.350Z,29.44
2018-05-21T17:30:07.949Z,29.88
2018-05-21T17:32:35.588Z,29.05
2018-05-21T17:35:03.225Z,29.73
2018-05-21T17:37:30.892Z,29.57
2018-05-21T17:39:58.532Z,29.74
2018-05-21T17:42:26.266Z,30.02
2018-05-21T17:44:53.987Z,30.46
2018-05-21T17:47:21.681Z,30.05
2018-05-21T17:49:49.341Z,30.51
2018-05-21T17:52:16.953Z,30.48
2018-05-21T17:54:44.634Z,30.69
2018-05-21T17:57:12.303Z,31.07
2018-05-21T17:59:39.917Z,31.22
2018-05-21T18:02:07.570Z,31.62
2018-05-21T18:04:35.250Z,32.29
2018-05-21T18:07:03.049Z,32.73
2018-05-21T18:09:30.699Z,33.17
2018-05-21T18:11:58.311Z,33.44
2018-05-21T18:14:25.939Z,33.59
2018-05-21T18:16:53.621Z,33.62
2018-05-21T18:19:21.264Z,33.79
2018-05-21T18:21:48.856Z,33.98
2018-05-21T18:24:16.484Z,34.08
2018-05-21T18:26:44.124Z,34.24
2018-05-21T18:29:11.794Z,34.32
2018-05-21T18:31:39.421Z,34.92
2018-05-21T18:34:07.012Z,35.00
2018-05-21T18:36:34.695Z,35.40
2018-05-21T18:39:02.346Z,35.81
2018-05-21T18:41:29.965Z,36.20
2018-05-21T18:43:57.654Z,36.18
2018-05-21T18:46:25.295Z,36.41
2018-05-21T18:48:52.909Z,36.85
2018-05-21T18:51:20.597Z,37.22
2018-05-21T18:53:48.283Z,37.14
2018-05-21T18:56:15.872Z,37.38
2018-05-21T18:58:43.480Z,37.61
2018-05-21T19:01:11.126Z,38.00
2018-05-21T19:03:38.785Z,38.29
2018-05-21T19:06:06.466Z,38.66
2018-05-21T19:08:34.113Z,38.97
2018-05-21T19:11:01.741Z,39.17
2018-05-21T19:13:29.349Z,39.28
2018-05-21T19:15:57.079Z,39.55
2018-05-21T19:18:24.698Z,40.00
2018-05-21T19:20:52.315Z,40.20
2018-05-21T19:23:19.983Z,40.49
2018-05-21T19:25:47.589Z,40.54
2018-05-21T19:28:15.324Z,40.23
2018-05-21T19:30:42.954Z,40.22
2018-05-21T19:33:10.649Z,40.74
2018-05-21T19:35:38.260Z,41.49
2018-05-21T19:38:05.893Z,41.36
2018-05-21T19:40:33.671Z,40.81
2018-05-21T19:43:01.338Z,42.05
2018-05-21T19:45:28.989Z,43.51
2018-05-21T19:47:56.660Z,44.28
2018-05-21T19:50:24.297Z,44.38
2018-05-21T19:52:51.948Z,44.44
2018-05-21T19:55:19.556Z,44.37
2018-05-21T19:57:47.221Z,44.22
2018-05-21T20:00:14.818Z,44.28
2018-05-21T20:02:42.436Z,44.68
2018-05-21T20:05:10.088Z,44.83
2018-05-21T20:07:37.676Z,43.70
2018-05-21T20:10:05.293Z,42.97
2018-05-21T20:12:33.093Z,43.16
2018-05-21T20:15:00.735Z,44.30
2018-05-21T20:17:28.339Z,48.11
2018-05-21T20:19:56.008Z,53.85
2018-05-21T20:22:23.626Z,54.40
2018-05-21T20:24:51.418Z,61.09
2018-05-21T20:27:19.101Z,64.90
2018-05-21T20:29:46.746Z,64.70
2018-05-21T20:32:14.403Z,66.14
2018-05-21T20:34:42.042Z,65.33
2018-05-21T20:37:09.722Z,64.70
2018-05-21T20:39:37.430Z,66.48
2018-05-21T20:42:05.040Z,67.98
2018-05-21T20:44:32.827Z,67.94
2018-05-21T20:47:00.516Z,69.03
2018-05-21T20:49:28.518Z,68.81
2018-05-21T20:51:56.161Z,68.58
2018-05-21T20:54:23.916Z,68.78
2018-05-21T20:56:51.620Z,64.30
2018-05-21T20:59:19.245Z,68.08
2018-05-21T21:01:46.951Z,60.64
2018-05-21T21:04:14.562Z,60.64
2018-05-21T21:06:42.253Z,56.08
2018-05-21T21:09:09.859Z,54.48
2018-05-21T21:11:37.517Z,56.49
2018-05-21T21:14:05.129Z,60.48
2018-05-21T21:16:32.793Z,60.55
2018-05-21T21:19:00.655Z,61.89
2018-05-21T21:21:29.213Z,62.70
2018-05-21T21:23:56.808Z,64.04
2018-05-21T21:26:24.492Z,64.13
2018-05-21T21:28:52.093Z,65.08
2018-05-21T21:31:19.703Z,65.77
2018-05-21T21:33:47.337Z,65.84
2018-05-21T21:36:14.933Z,65.14
2018-05-21T21:38:42.655Z,66.00
2018-05-21T21:41:10.257Z,64.52
2018-05-21T21:43:37.909Z,62.70
2018-05-21T21:46:06.021Z,65.96
2018-05-21T21:48:33.661Z,63.37
2018-05-21T21:51:01.389Z,65.55
2018-05-21T21:53:29.030Z,63.74
2018-05-21T21:55:56.632Z,62.65
2018-05-21T21:58:24.269Z,64.88
2018-05-21T22:00:51.889Z,66.54
2018-05-21T22:03:19.529Z,66.27
2018-05-21T22:05:47.118Z,66.96
2018-05-21T22:08:14.720Z,65.13
2018-05-21T22:10:42.353Z,64.90
2018-05-21T22:13:09.972Z,64.94
2018-05-21T22:15:37.624Z,65.03
2018-05-21T22:18:05.337Z,63.06
2018-05-21T22:20:33.108Z,63.77
2018-05-21T22:23:00.721Z,64.16
2018-05-21T22:25:28.476Z,62.18
2018-05-21T22:27:56.195Z,63.10
2018-05-21T22:30:23.839Z,64.01
2018-05-21T22:32:51.476Z,64.36
2018-05-21T22:35:19.197Z,64.52
2018-05-21T22:37:46.860Z,62.70
2018-05-21T22:40:14.644Z,63.11
2018-05-21T22:42:42.549Z,61.71
2018-05-21T22:45:10.209Z,58.66
2018-05-21T22:47:37.809Z,57.87
2018-05-21T22:50:05.467Z,56.93
2018-05-21T22:52:33.065Z,54.76
2018-05-21T22:55:00.665Z,53.06
2018-05-21T22:57:28.923Z,54.47
2018-05-21T22:59:56.534Z,49.73
2018-05-21T23:02:24.181Z,51.49
2018-05-21T23:04:51.821Z,53.74
2018-05-21T23:07:19.573Z,51.70
2018-05-21T23:09:47.985Z,51.61
2018-05-21T23:12:15.613Z,52.26
2018-05-21T23:14:43.301Z,53.42
2018-05-21T23:17:10.966Z,50.57
2018-05-21T23:19:38.584Z,53.29
2018-05-21T23:22:06.238Z,51.88
2018-05-21T23:24:33.861Z,52.40
2018-05-21T23:27:01.591Z,52.52
2018-05-21T23:29:30.021Z,51.92
2018-05-21T23:31:57.704Z,51.95
2018-05-21T23:34:25.399Z,52.37
2018-05-21T23:36:53.018Z,53.07
2018-05-21T23:39:20.645Z,52.92
2018-05-21T23:41:48.249Z,51.88
2018-05-21T23:44:15.893Z,51.03
2018-05-21T23:46:43.523Z,51.24
2018-05-21T23:49:11.392Z,50.66
2018-05-21T23:51:39.125Z,49.86
2018-05-21T23:54:06.759Z,50.47
2018-05-21T23:56:34.405Z,49.77
2018-05-21T23:59:02.148Z,51.29
